createdAt,value
2023-11-24T00:04:02.367Z,9.18
2023-11-24T00:09:04.168Z,9.16
2023-11-24T00:14:08.232Z,9.16
2023-11-24T00:19:11.947Z,9.05
2023-11-24T00:24:14.244Z,9.15
2023-11-24T00:29:17.143Z,9.07
2023-11-24T00:34:20.883Z,9.22
2023-11-24T00:39:22.297Z,9.26
2023-11-24T00:44:23.746Z,9.28
2023-11-24T00:49:25.069Z,9.34
2023-11-24T00:54:26.371Z,9.34
2023-11-24T00:59:27.664Z,9.37
2023-11-24T01:04:29.050Z,9.38
2023-11-24T01:09:31.072Z,9.44
2023-11-24T01:14:33.320Z,9.47
2023-11-24T01:19:37.306Z,9.51
2023-11-24T01:24:39.110Z,9.44
2023-11-24T01:29:40.726Z,9.54
2023-11-24T01:34:42.229Z,9.49
2023-11-24T01:39:43.984Z,9.55
2023-11-24T01:44:45.906Z,9.64
2023-11-24T01:49:48.676Z,9.65
2023-11-24T01:54:54.848Z,9.62
2023-11-24T01:59:57.196Z,9.48
2023-11-24T02:04:58.766Z,9.42
2023-11-24T02:10:03.313Z,9.11
2023-11-24T02:15:07.589Z,8.99
2023-11-24T02:20:13.298Z,8.90
2023-11-24T02:25:16.011Z,8.83
2023-11-24T02:30:17.721Z,8.77
2023-11-24T02:35:19.048Z,8.72
2023-11-24T02:40:20.408Z,8.74
2023-11-24T02:45:22.436Z,8.64
2023-11-24T02:50:23.762Z,8.66
2023-11-24T02:55:25.444Z,8.70
2023-11-24T03:00:27.952Z,8.71
2023-11-24T03:05:30.887Z,8.78
2023-11-24T03:10:32.702Z,8.90
2023-11-24T03:15:35.473Z,8.74
2023-11-24T03:20:38.219Z,9.07
2023-11-24T03:25:39.707Z,8.67
2023-11-24T03:30:42.552Z,8.77
2023-11-24T03:35:44.637Z,8.66
2023-11-24T03:40:47.985Z,8.69
2023-11-24T03:45:49.365Z,8.49
2023-11-24T03:50:52.326Z,8.24
2023-11-24T03:55:54.232Z,8.18
2023-11-24T04:00:55.723Z,8.23
2023-11-24T04:05:57.327Z,8.31
2023-11-24T04:10:59.248Z,8.27
2023-11-24T04:16:01.407Z,8.40
2023-11-24T04:21:02.926Z,8.37
2023-11-24T04:26:04.352Z,8.31
2023-11-24T04:31:05.687Z,8.05
2023-11-24T04:36:07.708Z,7.86
2023-11-24T04:41:09.067Z,7.85
2023-11-24T04:46:10.871Z,7.77
2023-11-24T04:51:12.317Z,7.72
2023-11-24T04:56:13.742Z,7.70
2023-11-24T05:01:15.537Z,7.85
2023-11-24T05:06:17.746Z,7.66
2023-11-24T05:11:19.834Z,7.43
2023-11-24T05:16:21.519Z,7.68
2023-11-24T05:21:22.957Z,7.62
2023-11-24T05:26:24.406Z,7.72
2023-11-24T05:31:28.754Z,7.88
2023-11-24T05:36:30.740Z,7.75
2023-11-24T05:41:32.136Z,7.99
2023-11-24T05:46:33.543Z,8.07
2023-11-24T05:51:34.995Z,8.12
2023-11-24T05:56:36.440Z,8.08
2023-11-24T06:01:38.202Z,8.27
2023-11-24T06:06:39.676Z,8.17
2023-11-24T06:11:41.178Z,8.30
2023-11-24T06:16:42.569Z,8.32
2023-11-24T06:21:44.213Z,8.35
2023-11-24T06:26:45.877Z,8.36
2023-11-24T06:31:47.389Z,8.33
2023-11-24T06:36:51.035Z,8.22
2023-11-24T06:41:54.964Z,8.33
2023-11-24T06:46:56.391Z,8.18
2023-11-24T06:52:00.327Z,8.26
2023-11-24T06:57:01.916Z,8.26
2023-11-24T07:02:04.866Z,8.21
2023-11-24T07:07:07.802Z,8.21
2023-11-24T07:12:13.403Z,8.10
2023-11-24T07:17:15.105Z,8.22
2023-11-24T07:22:19.071Z,8.07
2023-11-24T07:27:23.540Z,8.13
2023-11-24T07:32:32.123Z,8.13
2023-11-24T07:37:33.541Z,8.12
2023-11-24T07:42:35.951Z,7.90
2023-11-24T07:47:37.730Z,8.19
2023-11-24T07:52:39.045Z,8.27
2023-11-24T07:57:43.565Z,8.29
2023-11-24T08:02:45.130Z,8.12
2023-11-24T08:07:48.471Z,8.11
2023-11-24T08:12:49.852Z,7.97
2023-11-24T08:17:52.830Z,8.05
2023-11-24T08:22:54.432Z,7.97
2023-11-24T08:27:56.141Z,8.04
2023-11-24T08:32:57.477Z,8.19
2023-11-24T08:37:59.780Z,8.19
2023-11-24T08:43:02.279Z,8.19
2023-11-24T08:48:05.178Z,8.26
2023-11-24T08:53:07.189Z,8.28
2023-11-24T08:58:10.959Z,8.46
2023-11-24T09:03:15.662Z,8.58
2023-11-24T09:08:20.529Z,8.58
2023-11-24T09:13:22.154Z,8.52
2023-11-24T09:18:23.860Z,8.69
2023-11-24T09:23:28.290Z,8.70
2023-11-24T09:28:30.243Z,8.50
2023-11-24T09:33:33.749Z,8.52
2023-11-24T09:38:36.516Z,8.45
2023-11-24T09:43:42.072Z,8.34
2023-11-24T09:48:44.412Z,8.43
2023-11-24T09:53:47.165Z,8.52
2023-11-24T09:58:50.956Z,8.57
2023-11-24T10:03:54.800Z,8.42
2023-11-24T10:08:58.794Z,8.36
2023-11-24T10:14:01.176Z,7.85
2023-11-24T10:19:05.294Z,7.85
2023-11-24T10:24:08.581Z,7.58
2023-11-24T10:29:10.604Z,7.88
2023-11-24T10:34:12.219Z,7.71
2023-11-24T10:39:18.335Z,7.91
2023-11-24T10:44:22.341Z,7.97
2023-11-24T10:49:35.974Z,8.12
2023-11-24T10:54:45.439Z,9.09
2023-11-24T10:59:48.766Z,10.37
2023-11-24T11:05:04.887Z,10.07
2023-11-24T11:10:14.694Z,9.17
2023-11-24T11:15:19.347Z,8.69
2023-11-24T11:20:31.890Z,8.15
2023-11-24T11:25:40.867Z,7.86
2023-11-24T11:30:43.111Z,8.01
2023-11-24T11:35:48.096Z,9.23
2023-11-24T11:40:52.832Z,9.82
2023-11-24T11:46:06.588Z,9.82
2023-11-24T11:51:15.820Z,9.75
2023-11-24T11:56:19.513Z,9.34
2023-11-24T12:01:21.560Z,8.95
2023-11-24T12:06:26.549Z,8.47
2023-11-24T12:11:28.546Z,8.44
2023-11-24T12:16:36.675Z,8.39
2023-11-24T12:21:41.069Z,8.61
2023-11-24T12:26:42.656Z,8.48
2023-11-24T12:31:45.336Z,8.37
2023-11-24T12:36:51.357Z,8.32
2023-11-24T12:41:56.113Z,8.08
2023-11-24T12:47:16.901Z,8.00
2023-11-24T12:52:18.758Z,7.89
2023-11-24T12:57:20.718Z,7.78
2023-11-24T13:02:22.302Z,7.87
2023-11-24T13:07:23.753Z,7.76
2023-11-24T13:12:25.575Z,7.78
2023-11-24T13:17:27.336Z,7.92
2023-11-24T13:22:28.653Z,8.45
2023-11-24T13:27:32.289Z,12.54
2023-11-24T13:32:34.443Z,14.60
2023-11-24T13:37:38.635Z,12.38
2023-11-24T13:42:40.694Z,10.79
2023-11-24T13:47:43.408Z,10.16
2023-11-24T13:52:57.842Z,9.19
2023-11-24T13:58:01.787Z,9.48
2023-11-24T14:03:04.111Z,9.45
2023-11-24T14:08:10.169Z,8.95
2023-11-24T14:13:12.667Z,9.14
2023-11-24T14:18:14.065Z,9.11
2023-11-24T14:23:15.427Z,8.85
2023-11-24T14:28:18.759Z,8.34
2023-11-24T14:33:22.468Z,7.76
2023-11-24T14:38:23.860Z,7.92
2023-11-24T14:43:25.292Z,7.75
2023-11-24T14:48:27.452Z,7.54
2023-11-24T14:53:29.967Z,7.46
2023-11-24T14:58:33.086Z,7.44
2023-11-24T15:03:39.766Z,7.47
2023-11-24T15:08:50.527Z,7.39
2023-11-24T15:13:55.235Z,7.40
2023-11-24T15:18:56.928Z,7.36
2023-11-24T15:23:59.394Z,7.58
2023-11-24T15:29:01.638Z,7.43
2023-11-24T15:34:03.671Z,7.27
2023-11-24T15:39:12.890Z,7.11
2023-11-24T15:44:26.304Z,7.25
2023-11-24T15:49:28.346Z,7.34
2023-11-24T15:54:30.216Z,7.31
2023-11-24T15:59:35.171Z,7.25
2023-11-24T16:04:37.892Z,7.31
2023-11-24T16:09:41.496Z,7.28
2023-11-24T16:14:45.125Z,7.14
2023-11-24T16:19:47.002Z,6.99
2023-11-24T16:24:51.664Z,6.75
2023-11-24T16:29:52.949Z,6.85
2023-11-24T16:34:54.692Z,6.46
2023-11-24T16:39:57.585Z,5.75
2023-11-24T16:45:00.936Z,6.19
2023-11-24T16:50:08.528Z,6.15
2023-11-24T16:55:11.664Z,6.32
2023-11-24T17:00:16.280Z,6.21
2023-11-24T17:05:19.485Z,6.55
2023-11-24T17:10:20.813Z,6.57
2023-11-24T17:15:23.234Z,6.60
2023-11-24T17:20:27.073Z,6.47
2023-11-24T17:25:35.485Z,6.62
2023-11-24T17:30:40.627Z,6.71
2023-11-24T17:35:42.097Z,6.76
2023-11-24T17:40:43.689Z,6.76
2023-11-24T17:45:47.394Z,6.69
2023-11-24T17:50:48.845Z,6.78
2023-11-24T17:55:50.500Z,6.70
2023-11-24T18:00:53.132Z,6.68
2023-11-24T18:05:54.488Z,6.56
2023-11-24T18:10:55.824Z,6.51
2023-11-24T18:15:57.514Z,6.43
2023-11-24T18:20:59.014Z,6.36
2023-11-24T18:26:01.829Z,6.25
2023-11-24T18:31:03.655Z,6.28
2023-11-24T18:36:08.348Z,6.25
2023-11-24T18:41:11.220Z,6.03
2023-11-24T18:46:17.168Z,6.15
2023-11-24T18:51:18.541Z,6.03
2023-11-24T18:56:23.268Z,6.05
2023-11-24T19:01:27.090Z,5.83
2023-11-24T19:06:29.679Z,5.86
2023-11-24T19:11:33.760Z,6.00
2023-11-24T19:16:45.082Z,6.04
2023-11-24T19:21:46.870Z,5.88
2023-11-24T19:26:49.441Z,5.73
2023-11-24T19:31:51.620Z,5.44
2023-11-24T19:36:54.258Z,5.53
2023-11-24T19:41:55.640Z,5.64
2023-11-24T19:46:59.625Z,5.71
2023-11-24T19:52:01.600Z,5.82
2023-11-24T19:57:05.429Z,5.80
2023-11-24T20:02:07.241Z,5.53
2023-11-24T20:07:08.944Z,5.58
2023-11-24T20:12:10.579Z,5.49
2023-11-24T20:17:12.604Z,5.56
2023-11-24T20:22:14.031Z,5.55
2023-11-24T20:27:18.136Z,5.64
2023-11-24T20:32:20.829Z,5.59
2023-11-24T20:37:22.528Z,5.55
2023-11-24T20:42:24.087Z,5.58
2023-11-24T20:47:25.756Z,5.64
2023-11-24T20:52:27.643Z,5.59
2023-11-24T20:57:29.307Z,5.66
2023-11-24T21:02:31.940Z,5.59
2023-11-24T21:07:33.296Z,5.87
2023-11-24T21:12:36.027Z,5.82
2023-11-24T21:17:37.713Z,5.68
2023-11-24T21:22:39.245Z,5.74
2023-11-24T21:27:40.649Z,5.71
2023-11-24T21:32:42.727Z,5.31
2023-11-24T21:37:44.421Z,5.05
2023-11-24T21:42:46.576Z,4.70
2023-11-24T21:47:48.255Z,4.68
2023-11-24T21:52:50.597Z,4.61
2023-11-24T21:57:55.448Z,4.67
2023-11-24T22:02:57.128Z,4.80
2023-11-24T22:07:58.707Z,5.09
2023-11-24T22:13:02.896Z,5.28
2023-11-24T22:18:10.529Z,5.11
2023-11-24T22:23:11.997Z,4.86
2023-11-24T22:28:13.396Z,4.99
2023-11-24T22:33:15.756Z,4.73
2023-11-24T22:38:18.144Z,4.89
2023-11-24T22:43:20.630Z,4.71
2023-11-24T22:48:22.703Z,4.73
2023-11-24T22:53:24.026Z,4.75
2023-11-24T22:58:25.429Z,4.96
2023-11-24T23:03:27.988Z,5.22
2023-11-24T23:08:31.725Z,5.12
2023-11-24T23:13:35.939Z,4.89
2023-11-24T23:18:41.517Z,4.80
2023-11-24T23:23:45.898Z,4.70
2023-11-24T23:28:49.617Z,4.70
2023-11-24T23:33:51.195Z,4.63
2023-11-24T23:38:52.781Z,4.46
2023-11-24T23:43:54.215Z,4.47
2023-11-24T23:48:55.749Z,4.67
2023-11-24T23:53:57.174Z,4.70
2023-11-24T23:58:58.709Z,4.94
